createdAt,value
2022-08-22T00:01:02.943Z,27.09
2022-08-22T00:03:10.728Z,30.08
2022-08-22T00:03:46.510Z,27.11
2022-08-22T00:06:23.141Z,27.13
2022-08-22T00:09:24.704Z,27.13
2022-08-22T00:12:04.971Z,27.13
2022-08-22T00:14:42.641Z,27.12
2022-08-22T00:17:35.438Z,27.10
2022-08-22T00:20:14.385Z,27.08
2022-08-22T00:22:51.846Z,27.06
2022-08-22T00:25:43.511Z,27.06
2022-08-22T00:28:17.823Z,27.06
2022-08-22T00:30:57.066Z,27.05
2022-08-22T00:33:38.932Z,27.04
2022-08-22T00:36:20.133Z,27.01
2022-08-22T00:39:08.126Z,27.00
2022-08-22T00:41:59.088Z,26.99
2022-08-22T00:44:54.255Z,26.99
2022-08-22T00:47:48.868Z,26.98
2022-08-22T00:50:49.373Z,26.95
2022-08-22T00:53:36.314Z,26.92
2022-08-22T00:56:42.256Z,26.91
2022-08-22T00:59:35.262Z,26.88
2022-08-22T01:02:20.180Z,26.86
2022-08-22T01:05:14.212Z,26.85
2022-08-22T01:08:10.958Z,26.82
2022-08-22T01:11:07.200Z,26.76
2022-08-22T01:13:53.209Z,26.72
2022-08-22T01:16:36.354Z,26.69
2022-08-22T01:19:32.014Z,26.64
2022-08-22T01:22:35.463Z,26.59
2022-08-22T01:25:41.695Z,26.53
2022-08-22T01:28:36.183Z,26.48
2022-08-22T01:31:45.010Z,26.45
2022-08-22T01:34:44.717Z,26.39
2022-08-22T01:37:35.211Z,26.37
2022-08-22T01:40:53.359Z,26.36
2022-08-22T01:43:59.774Z,26.36
2022-08-22T01:46:37.774Z,26.33
2022-08-22T01:49:10.644Z,26.32
2022-08-22T01:51:51.915Z,26.27
2022-08-22T01:54:42.943Z,26.27
2022-08-22T01:57:15.030Z,26.24
2022-08-22T01:59:48.519Z,26.25
2022-08-22T02:02:33.478Z,26.23
2022-08-22T02:05:12.901Z,26.21
2022-08-22T02:07:46.275Z,26.20
2022-08-22T02:10:24.503Z,26.17
2022-08-22T02:13:08.180Z,26.19
2022-08-22T02:16:02.991Z,26.19
2022-08-22T02:18:47.039Z,26.21
2022-08-22T02:21:23.545Z,26.21
2022-08-22T02:24:01.220Z,26.18
2022-08-22T02:26:45.206Z,26.18
2022-08-22T02:29:20.605Z,26.17
2022-08-22T02:31:58.722Z,26.16
2022-08-22T02:34:39.303Z,26.16
2022-08-22T02:37:16.920Z,26.12
2022-08-22T02:39:54.493Z,26.13
2022-08-22T02:42:34.976Z,26.12
2022-08-22T02:45:23.101Z,26.12
2022-08-22T02:48:00.119Z,26.10
2022-08-22T02:50:38.863Z,26.09
2022-08-22T02:53:15.697Z,26.07
2022-08-22T02:56:00.298Z,26.05
2022-08-22T02:58:40.595Z,26.02
2022-08-22T03:01:37.205Z,26.00
2022-08-22T03:04:28.491Z,25.98
2022-08-22T03:07:12.780Z,25.97
2022-08-22T03:09:49.602Z,25.97
2022-08-22T03:12:30.106Z,25.98
2022-08-22T03:15:08.906Z,26.00
2022-08-22T03:17:49.527Z,26.02
2022-08-22T03:20:39.219Z,26.02
2022-08-22T03:23:17.167Z,26.03
2022-08-22T03:25:57.549Z,26.22
2022-08-22T03:28:33.873Z,26.42
2022-08-22T03:31:20.165Z,26.61
2022-08-22T03:34:22.587Z,26.76
2022-08-22T03:37:07.788Z,26.91
2022-08-22T03:40:01.075Z,27.02
2022-08-22T03:43:08.589Z,27.09
2022-08-22T03:46:05.461Z,27.18
2022-08-22T03:49:07.585Z,27.26
2022-08-22T03:52:03.243Z,27.33
2022-08-22T03:55:08.548Z,27.38
2022-08-22T03:58:27.373Z,27.44
2022-08-22T04:01:33.244Z,27.53
2022-08-22T04:04:41.642Z,27.61
2022-08-22T04:07:38.313Z,27.68
2022-08-22T04:10:51.714Z,27.75
2022-08-22T04:13:52.834Z,27.82
2022-08-22T04:16:55.471Z,27.87
2022-08-22T04:19:54.139Z,27.92
2022-08-22T04:22:40.492Z,27.97
2022-08-22T04:25:16.714Z,28.02
2022-08-22T04:27:55.877Z,28.04
2022-08-22T04:30:34.537Z,28.08
2022-08-22T04:33:11.273Z,28.13
2022-08-22T04:35:47.550Z,28.15
2022-08-22T04:38:23.342Z,28.18
2022-08-22T04:41:04.510Z,28.20
2022-08-22T04:43:42.405Z,28.23
2022-08-22T04:46:18.668Z,28.24
2022-08-22T04:48:55.985Z,28.23
2022-08-22T04:51:33.230Z,28.24
2022-08-22T04:54:27.215Z,28.27
2022-08-22T04:57:16.500Z,28.28
2022-08-22T04:59:47.421Z,28.29
2022-08-22T05:02:27.722Z,28.31
2022-08-22T05:05:04.364Z,28.31
2022-08-22T05:07:40.849Z,28.32
2022-08-22T05:10:17.378Z,28.33
2022-08-22T05:12:55.437Z,28.33
2022-08-22T05:15:29.545Z,28.34
2022-08-22T05:18:06.650Z,28.35
2022-08-22T05:20:40.558Z,28.34
2022-08-22T05:23:17.952Z,28.33
2022-08-22T05:25:54.375Z,28.32
2022-08-22T05:28:34.953Z,28.32
2022-08-22T05:31:14.763Z,28.32
2022-08-22T05:33:49.365Z,28.32
2022-08-22T05:36:26.481Z,28.35
2022-08-22T05:39:00.557Z,28.37
2022-08-22T05:41:35.688Z,28.37
2022-08-22T05:44:09.297Z,28.37
2022-08-22T05:46:44.149Z,28.36
2022-08-22T05:49:21.919Z,28.36
2022-08-22T05:52:11.454Z,28.35
2022-08-22T05:54:53.052Z,28.36
2022-08-22T05:57:29.707Z,28.37
2022-08-22T06:00:08.885Z,28.38
2022-08-22T06:03:01.655Z,28.38
2022-08-22T06:05:39.713Z,28.38
2022-08-22T06:08:18.638Z,28.37
2022-08-22T06:10:54.754Z,28.37
2022-08-22T06:13:35.409Z,28.37
2022-08-22T06:16:14.337Z,28.37
2022-08-22T06:18:47.186Z,28.36
2022-08-22T06:21:23.419Z,28.36
2022-08-22T06:23:58.597Z,28.36
2022-08-22T06:26:35.270Z,28.37
2022-08-22T06:29:08.623Z,28.36
2022-08-22T06:31:40.740Z,28.36
2022-08-22T06:34:14.951Z,28.34
2022-08-22T06:36:48.013Z,28.35
2022-08-22T06:39:24.091Z,28.36
2022-08-22T06:42:01.172Z,28.35
2022-08-22T06:44:35.910Z,28.35
2022-08-22T06:47:11.600Z,28.34
2022-08-22T06:49:45.736Z,28.34
2022-08-22T06:52:23.448Z,28.34
2022-08-22T06:55:00.379Z,28.32
2022-08-22T06:57:34.517Z,28.32
2022-08-22T07:00:11.757Z,28.36
2022-08-22T07:02:45.265Z,28.38
2022-08-22T07:05:22.056Z,28.36
2022-08-22T07:07:53.211Z,28.35
2022-08-22T07:10:25.842Z,28.35
2022-08-22T07:12:59.906Z,28.35
2022-08-22T07:15:36.770Z,28.40
2022-08-22T07:18:10.780Z,28.39
2022-08-22T07:20:45.767Z,28.37
2022-08-22T07:23:33.014Z,28.34
2022-08-22T07:26:16.282Z,28.34
2022-08-22T07:28:58.426Z,28.38
2022-08-22T07:31:37.237Z,28.37
2022-08-22T07:34:35.885Z,28.35
2022-08-22T07:37:12.857Z,28.35
2022-08-22T07:39:53.778Z,28.35
2022-08-22T07:42:33.979Z,28.34
2022-08-22T07:45:13.620Z,28.37
2022-08-22T07:48:04.526Z,28.37
2022-08-22T07:50:44.157Z,28.35
2022-08-22T07:53:28.046Z,28.35
2022-08-22T07:56:01.679Z,28.34
2022-08-22T07:58:36.431Z,28.33
2022-08-22T08:01:11.096Z,28.37
2022-08-22T08:03:42.479Z,28.36
2022-08-22T08:06:13.506Z,28.33
2022-08-22T08:08:46.917Z,28.32
2022-08-22T08:11:20.651Z,28.29
2022-08-22T08:13:59.227Z,28.28
2022-08-22T08:16:42.262Z,28.32
2022-08-22T08:19:16.944Z,28.31
2022-08-22T08:21:53.719Z,28.31
2022-08-22T08:24:31.573Z,28.29
2022-08-22T08:27:35.152Z,28.28
2022-08-22T08:30:15.438Z,28.31
2022-08-22T08:32:59.567Z,28.31
2022-08-22T08:36:02.373Z,28.28
2022-08-22T08:38:40.634Z,28.28
2022-08-22T08:41:39.622Z,28.29
2022-08-22T08:44:24.875Z,28.31
2022-08-22T08:47:23.196Z,28.30
2022-08-22T08:50:12.154Z,28.27
2022-08-22T08:53:06.465Z,28.28
2022-08-22T08:55:48.560Z,28.32
2022-08-22T08:58:35.158Z,28.30
2022-08-22T09:01:34.182Z,28.27
2022-08-22T09:04:50.714Z,28.25
2022-08-22T09:07:59.886Z,28.26
2022-08-22T09:11:09.708Z,28.30
2022-08-22T09:13:56.637Z,28.31
2022-08-22T09:16:51.297Z,28.31
2022-08-22T09:19:54.879Z,28.33
2022-08-22T09:22:50.085Z,28.31
2022-08-22T09:25:39.755Z,28.26
2022-08-22T09:28:18.134Z,28.25
2022-08-22T09:31:22.504Z,28.27
2022-08-22T09:34:12.732Z,28.27
2022-08-22T09:37:04.461Z,28.27
2022-08-22T09:39:44.396Z,28.26
2022-08-22T09:42:25.525Z,28.25
2022-08-22T09:45:29.980Z,28.30
2022-08-22T09:48:07.184Z,28.30
2022-08-22T09:50:54.645Z,28.30
2022-08-22T09:53:49.017Z,28.30
2022-08-22T09:56:34.738Z,28.32
2022-08-22T09:59:10.653Z,28.30
2022-08-22T10:01:51.799Z,28.31
2022-08-22T10:04:57.515Z,28.32
2022-08-22T10:07:55.059Z,28.29
2022-08-22T10:10:51.271Z,28.28
2022-08-22T10:13:43.708Z,28.30
2022-08-22T10:16:40.534Z,28.31
2022-08-22T10:19:18.976Z,28.28
2022-08-22T10:22:19.265Z,28.27
2022-08-22T10:25:12.884Z,28.29
2022-08-22T10:27:58.208Z,28.31
2022-08-22T10:30:35.768Z,28.32
2022-08-22T10:33:13.285Z,28.33
2022-08-22T10:35:56.583Z,28.33
2022-08-22T10:38:34.342Z,28.34
2022-08-22T10:41:30.334Z,28.32
2022-08-22T10:44:06.525Z,28.31
2022-08-22T10:46:42.196Z,28.34
2022-08-22T10:49:22.448Z,28.33
2022-08-22T10:52:15.317Z,28.32
2022-08-22T10:54:52.874Z,28.34
2022-08-22T10:57:52.813Z,28.34
2022-08-22T11:00:46.346Z,28.33
2022-08-22T11:03:26.028Z,28.33
2022-08-22T11:06:01.781Z,28.33
2022-08-22T11:09:00.870Z,28.34
2022-08-22T11:11:42.926Z,28.31
2022-08-22T11:14:36.000Z,28.31
2022-08-22T11:17:30.240Z,28.31
2022-08-22T11:20:19.559Z,28.30
2022-08-22T11:23:12.301Z,28.29
2022-08-22T11:25:57.567Z,28.29
2022-08-22T11:28:48.416Z,28.30
2022-08-22T11:31:36.513Z,28.33
2022-08-22T11:34:16.690Z,28.32
2022-08-22T11:36:57.064Z,28.33
2022-08-22T11:39:35.242Z,28.32
2022-08-22T11:42:16.483Z,28.33
2022-08-22T11:44:57.047Z,28.32
2022-08-22T11:47:32.208Z,28.32
2022-08-22T11:50:14.053Z,28.29
2022-08-22T11:53:13.187Z,28.31
2022-08-22T11:55:51.604Z,28.31
2022-08-22T11:58:43.859Z,28.32
2022-08-22T12:01:21.671Z,28.30
2022-08-22T12:04:09.837Z,28.32
2022-08-22T12:07:03.116Z,28.29
2022-08-22T12:09:44.717Z,28.26
2022-08-22T12:12:35.244Z,28.27
2022-08-22T12:15:14.802Z,28.29
2022-08-22T12:18:02.154Z,28.27
2022-08-22T12:20:53.960Z,28.27
2022-08-22T12:23:49.526Z,28.27
2022-08-22T12:26:30.750Z,28.29
2022-08-22T12:29:34.119Z,28.26
2022-08-22T12:33:00.895Z,28.24
2022-08-22T12:35:42.897Z,28.23
2022-08-22T12:38:33.721Z,28.23
2022-08-22T12:41:34.989Z,28.25
2022-08-22T12:44:23.690Z,28.25
2022-08-22T12:47:15.160Z,28.24
2022-08-22T12:50:13.157Z,28.24
2022-08-22T12:53:10.385Z,28.24
2022-08-22T12:56:12.153Z,28.23
2022-08-22T12:59:11.137Z,28.23
2022-08-22T13:01:46.830Z,28.22
2022-08-22T13:04:33.925Z,28.19
2022-08-22T13:07:22.686Z,28.20
2022-08-22T13:09:58.125Z,28.19
2022-08-22T13:12:33.423Z,28.19
2022-08-22T13:15:17.257Z,28.19
2022-08-22T13:17:52.940Z,28.17
2022-08-22T13:20:29.639Z,28.17
2022-08-22T13:23:02.441Z,28.19
2022-08-22T13:28:46.566Z,28.22
2022-08-22T13:31:25.879Z,28.20
2022-08-22T13:34:02.739Z,28.19
2022-08-22T13:36:42.035Z,28.21
2022-08-22T13:39:33.631Z,28.19
2022-08-22T13:42:14.552Z,28.18
2022-08-22T13:45:02.512Z,28.19
2022-08-22T13:47:39.482Z,28.21
2022-08-22T13:50:19.266Z,28.20
2022-08-22T13:52:56.918Z,28.18
2022-08-22T13:55:32.413Z,28.17
2022-08-22T13:58:11.118Z,28.19
2022-08-22T14:01:10.671Z,28.17
2022-08-22T14:03:49.203Z,28.16
2022-08-22T14:06:36.917Z,28.14
2022-08-22T14:09:17.595Z,28.11
2022-08-22T14:12:12.255Z,28.14
2022-08-22T14:14:47.015Z,28.14
2022-08-22T14:17:21.472Z,28.14
2022-08-22T14:20:01.496Z,28.12
2022-08-22T14:22:35.796Z,28.12
2022-08-22T14:25:10.764Z,28.13
2022-08-22T14:27:56.368Z,28.15
2022-08-22T14:30:32.601Z,28.12
2022-08-22T14:33:13.669Z,28.12
2022-08-22T14:35:52.879Z,28.13
2022-08-22T14:38:35.311Z,28.13
2022-08-22T14:41:11.078Z,28.11
2022-08-22T14:43:54.569Z,28.11
2022-08-22T14:46:32.247Z,28.09
2022-08-22T14:49:30.813Z,28.09
2022-08-22T14:52:19.338Z,28.08
2022-08-22T14:55:08.125Z,28.07
2022-08-22T14:57:46.931Z,28.11
2022-08-22T15:00:31.007Z,28.11
2022-08-22T15:03:14.891Z,28.02
2022-08-22T15:05:50.584Z,27.99
2022-08-22T15:08:27.968Z,27.96
2022-08-22T15:11:25.174Z,27.93
2022-08-22T15:14:00.939Z,27.92
2022-08-22T15:16:40.429Z,27.93
2022-08-22T15:19:28.010Z,27.89
2022-08-22T15:22:14.835Z,27.84
2022-08-22T15:24:56.822Z,27.81
2022-08-22T15:27:30.201Z,27.80
2022-08-22T15:30:07.002Z,27.78
2022-08-22T15:32:51.944Z,27.81
2022-08-22T15:35:33.503Z,27.87
2022-08-22T15:38:08.221Z,27.91
2022-08-22T15:40:45.676Z,27.93
2022-08-22T15:43:24.710Z,27.98
2022-08-22T15:46:18.072Z,28.00
2022-08-22T15:49:00.899Z,28.03
2022-08-22T15:51:40.454Z,28.06
2022-08-22T15:54:24.937Z,28.09
2022-08-22T15:57:24.015Z,28.12
2022-08-22T15:59:59.259Z,28.13
2022-08-22T16:02:35.925Z,28.14
2022-08-22T16:05:25.972Z,28.16
2022-08-22T16:08:09.753Z,28.18
2022-08-22T16:10:44.424Z,28.21
2022-08-22T16:13:38.117Z,28.23
2022-08-22T16:16:13.535Z,28.22
2022-08-22T16:19:10.447Z,28.22
2022-08-22T16:22:07.096Z,28.22
2022-08-22T16:25:10.679Z,28.21
2022-08-22T16:27:55.620Z,28.19
2022-08-22T16:30:39.716Z,28.18
2022-08-22T16:33:17.988Z,28.18
2022-08-22T16:36:25.838Z,28.18
2022-08-22T16:38:58.616Z,28.19
2022-08-22T16:41:37.346Z,28.19
2022-08-22T16:44:41.948Z,28.21
2022-08-22T16:47:19.181Z,28.25
2022-08-22T16:50:29.744Z,28.25
2022-08-22T16:53:06.967Z,28.16
2022-08-22T16:56:12.224Z,28.12
2022-08-22T16:59:19.697Z,28.06
2022-08-22T17:02:08.679Z,28.00
2022-08-22T17:04:41.482Z,28.00
2022-08-22T17:07:30.285Z,27.97
2022-08-22T17:10:28.156Z,27.95
2022-08-22T17:13:18.544Z,27.92
2022-08-22T17:16:06.030Z,27.92
2022-08-22T17:18:51.208Z,27.91
2022-08-22T17:21:26.639Z,27.90
2022-08-22T17:24:07.688Z,27.90
2022-08-22T17:26:55.208Z,27.89
2022-08-22T17:29:39.123Z,27.90
2022-08-22T17:32:18.035Z,27.90
2022-08-22T17:35:01.421Z,27.87
2022-08-22T17:37:50.295Z,27.87
2022-08-22T17:40:32.947Z,27.86
2022-08-22T17:43:17.525Z,27.86
2022-08-22T17:46:13.278Z,27.85
2022-08-22T17:48:50.242Z,27.83
2022-08-22T17:51:29.685Z,27.83
2022-08-22T17:54:07.198Z,27.87
2022-08-22T17:56:50.129Z,27.99
2022-08-22T17:59:33.707Z,28.11
2022-08-22T18:02:16.386Z,28.19
2022-08-22T18:04:58.004Z,28.24
2022-08-22T18:07:40.363Z,28.29
2022-08-22T18:10:21.639Z,28.33
2022-08-22T18:13:01.413Z,28.38
2022-08-22T18:15:44.043Z,28.41
2022-08-22T18:18:30.289Z,28.40
2022-08-22T18:21:07.774Z,28.36
2022-08-22T18:23:42.926Z,28.42
2022-08-22T18:26:29.569Z,28.44
2022-08-22T18:29:08.698Z,28.45
2022-08-22T18:31:49.351Z,28.46
2022-08-22T18:34:31.243Z,28.47
2022-08-22T18:37:07.953Z,28.47
2022-08-22T18:39:48.186Z,28.47
2022-08-22T18:42:29.915Z,28.46
2022-08-22T18:45:00.822Z,28.46
2022-08-22T18:47:35.274Z,28.44
2022-08-22T18:50:30.729Z,28.44
2022-08-22T18:53:02.434Z,28.42
2022-08-22T18:55:51.340Z,28.43
2022-08-22T18:58:36.936Z,28.44
2022-08-22T19:01:30.983Z,28.44
2022-08-22T19:04:34.719Z,28.41
2022-08-22T19:07:25.678Z,28.42
2022-08-22T19:10:21.997Z,28.44
2022-08-22T19:13:09.461Z,28.45
2022-08-22T19:15:52.440Z,28.48
2022-08-22T19:18:41.417Z,28.47
2022-08-22T19:21:46.773Z,28.46
2022-08-22T19:24:57.977Z,28.42
2022-08-22T19:27:32.752Z,28.45
2022-08-22T19:30:09.333Z,28.46
2022-08-22T19:33:02.125Z,28.48
2022-08-22T19:35:43.255Z,28.48
2022-08-22T19:38:35.014Z,28.48
2022-08-22T19:41:06.116Z,28.48
2022-08-22T19:43:41.037Z,28.48
2022-08-22T19:46:14.953Z,28.47
2022-08-22T19:48:48.847Z,28.42
2022-08-22T19:51:29.292Z,28.44
2022-08-22T19:54:20.456Z,28.37
2022-08-22T19:57:07.386Z,28.28
2022-08-22T19:59:51.681Z,28.18
2022-08-22T20:02:37.074Z,28.11
2022-08-22T20:05:14.558Z,28.02
2022-08-22T20:08:02.941Z,27.95
2022-08-22T20:10:49.128Z,27.93
2022-08-22T20:13:25.320Z,27.91
2022-08-22T20:16:23.586Z,27.89
2022-08-22T20:19:15.282Z,27.86
2022-08-22T20:21:54.906Z,27.83
2022-08-22T20:24:36.498Z,27.82
2022-08-22T20:27:30.104Z,27.80
2022-08-22T20:30:07.722Z,27.77
2022-08-22T20:32:43.786Z,27.75
2022-08-22T20:35:19.321Z,27.76
2022-08-22T20:38:06.706Z,27.76
2022-08-22T20:40:53.551Z,27.78
2022-08-22T20:43:35.389Z,27.76
2022-08-22T20:46:26.529Z,27.78
2022-08-22T20:48:59.058Z,27.76
2022-08-22T20:51:32.712Z,27.79
2022-08-22T20:54:16.707Z,27.79
2022-08-22T20:56:53.013Z,27.76
2022-08-22T20:59:33.432Z,27.75
2022-08-22T21:02:11.499Z,27.74
2022-08-22T21:04:47.787Z,27.74
2022-08-22T21:07:26.675Z,27.73
2022-08-22T21:10:22.234Z,27.74
2022-08-22T21:13:12.484Z,27.73
2022-08-22T21:15:46.696Z,27.72
2022-08-22T21:18:27.629Z,27.71
2022-08-22T21:21:09.862Z,27.71
2022-08-22T21:23:51.484Z,27.72
2022-08-22T21:26:28.667Z,27.71
2022-08-22T21:29:02.336Z,27.71
2022-08-22T21:31:36.547Z,27.71
2022-08-22T21:34:13.473Z,27.71
2022-08-22T21:36:44.848Z,27.72
2022-08-22T21:39:20.916Z,27.78
2022-08-22T21:41:53.990Z,27.83
2022-08-22T21:44:36.383Z,27.90
2022-08-22T21:47:30.786Z,27.94
2022-08-22T21:50:06.310Z,27.99
2022-08-22T21:52:39.380Z,28.02
2022-08-22T21:55:24.936Z,28.04
2022-08-22T21:58:12.655Z,28.06
2022-08-22T22:00:53.087Z,28.06
2022-08-22T22:03:26.068Z,28.05
2022-08-22T22:05:59.846Z,28.03
2022-08-22T22:08:32.702Z,28.02
2022-08-22T22:11:06.236Z,28.01
2022-08-22T22:13:39.899Z,28.01
2022-08-22T22:16:12.187Z,27.99
2022-08-22T22:18:43.409Z,27.97
2022-08-22T22:21:14.235Z,27.95
2022-08-22T22:23:45.226Z,27.96
2022-08-22T22:26:16.553Z,27.94
2022-08-22T22:28:50.285Z,27.92
2022-08-22T22:31:21.299Z,27.90
2022-08-22T22:33:52.023Z,27.91
2022-08-22T22:36:26.127Z,27.89
2022-08-22T22:38:57.114Z,27.89
2022-08-22T22:41:27.912Z,27.89
2022-08-22T22:43:58.747Z,27.88
2022-08-22T22:46:30.044Z,27.84
2022-08-22T22:49:01.021Z,27.85
2022-08-22T22:51:31.862Z,27.84
2022-08-22T22:54:02.604Z,27.83
2022-08-22T22:56:33.739Z,27.86
2022-08-22T22:59:13.477Z,27.86
2022-08-22T23:02:06.256Z,27.84
2022-08-22T23:04:39.765Z,27.81
2022-08-22T23:07:12.563Z,27.80
2022-08-22T23:09:44.574Z,27.80
2022-08-22T23:12:16.471Z,27.76
2022-08-22T23:14:47.627Z,27.72
2022-08-22T23:17:19.072Z,27.70
2022-08-22T23:19:51.694Z,27.68
2022-08-22T23:22:22.881Z,27.67
2022-08-22T23:24:54.066Z,27.69
2022-08-22T23:27:24.930Z,27.72
2022-08-22T23:29:55.972Z,27.71
2022-08-22T23:32:26.873Z,27.68
2022-08-22T23:34:58.194Z,27.68
2022-08-22T23:37:28.892Z,27.67
2022-08-22T23:40:00.355Z,27.67
2022-08-22T23:42:31.239Z,27.67
2022-08-22T23:45:02.187Z,27.67
2022-08-22T23:47:33.023Z,27.66
2022-08-22T23:50:06.086Z,27.69
2022-08-22T23:52:37.546Z,27.73
2022-08-22T23:55:09.971Z,27.74
2022-08-22T23:57:41.529Z,27.70
